ADDS METAR Data INFO
IDs: Format: Raw Decoded Include TAF

Data at: 0744 UTC 23 Jul 2018

KLAF 230654Z AUTO 33006KT 10SM CLR 17/16 A2988 RMK AO2 SLP115 T01670156
KLAF 230554Z AUTO 01005KT 10SM CLR 18/16 A2989 RMK AO2 SLP116 T01780161 10228 20178 50000
KLAF 230454Z AUTO 02005KT 10SM FEW038 19/17 A2991 RMK AO2 SLP122 T01890167 402670189
KLAF 230359Z AUTO 02008KT 10SM FEW009 BKN031 OVC041 21/19 A2990 RMK AO2 T02060189
KLAF 230354Z AUTO 01008KT 10SM FEW010 BKN029 OVC043 21/19 A2990 RMK AO2 SLP120 T02060194
KLAF 230328Z AUTO 02005KT 10SM SCT023 BKN028 OVC070 21/19 A2989 RMK AO2 T02060194
KLAF 230254Z AUTO 03005KT 10SM OVC050 21/19 A2989 RMK AO2 SLP116 T02060194 51016
KLAF 230154Z AUTO 01006KT 10SM BKN070 OVC085 21/19 A2988 RMK AO2 SLP115 T02110189
KLAF 230054Z 01006KT 10SM FEW011 SCT070 BKN095 22/19 A2986 RMK AO2 SLP106 T02220194
KLAF 222354Z 01010KT 10SM FEW014 BKN075 BKN100 23/20 A2984 RMK AO2 RAE00 SLP100 P0000 60001 T02280200 10267 20222 53014
KLAF 222254Z 02009KT 10SM -RA FEW034 BKN065 OVC090 23/19 A2983 RMK AO2 RAB44 SLP096 P0000 T02280194
KLAF 222154Z 03004KT 10SM CLR 25/20 A2981 RMK AO2 SLP089 T02500200
KLAF 222054Z 04007KT 010V080 10SM FEW048 FEW110 24/21 A2980 RMK AO2 LTG DSNT NE AND W RAB21E47 SLP086 P0001 60001 T02440206 53002
KLAF 221954Z 02010KT 10SM FEW024 SCT030 SCT039 27/20 A2979 RMK AO2 LTG DSNT E AND NW RAE1857 SLP084 P0000 T02670200
KLAF 221901Z 02010KT 10SM FEW020 BKN037 BKN046 26/21 A2979 RMK AO2 LTG DSNT N AND NE RAE1857 P0000 T02560211
KLAF 221854Z 02008KT 10SM -RA BKN020 BKN044 24/21 A2979 RMK AO2 LTG DSNT NE AND S RAB43 SLP082 P0000 T02390211
KLAF 221754Z 02011KT 10SM BKN018 BKN031 BKN045 23/21 A2979 RMK AO2 RAB22E42 SLP083 P0019 60019 T02330211 10256 20200 58002
KLAF 221737Z 02005KT 3SM -RA BR BKN018 BKN031 BKN045 22/21 A2979 RMK AO2 RAB22 P0019 T02220206
KLAF 221725Z 34011KT 1 3/4SM +RA BR BKN018 BKN031 BKN045 22/21 A2979 RMK AO2 RAB22 P0013 T02220206
KLAF 221701Z 35009KT 10SM BKN018 BKN031 BKN045 24/21 A2979 RMK AO2 T02390206
KLAF 221654Z 36009KT 10SM BKN009 BKN029 OVC035 24/21 A2979 RMK AO2 SLP084 T02440206
KLAF 221554Z 35009G15KT 8SM OVC009 23/21 A2980 RMK AO2 SLP086 T02330206
KLAF 221454Z 36009KT 7SM OVC009 21/20 A2980 RMK AO2 CIG 008V013 SLP086 60000 T02110200 51011
KLAF 221354Z 35008KT 8SM BKN010 OVC015 21/20 A2979 RMK AO2 SLP083 T02110200
KLAF 221254Z 01008KT 10SM OVC013 21/20 A2977 RMK AO2 RAE1159 SLP077 P0000 T02060200
KLAF 221243Z 36007KT 10SM OVC010 21/20 A2978 RMK AO2 RAE1159 CIG 007V013 P0000 T02060200
KLAF 221154Z 34007KT 5SM -RA BR BKN008 BKN012 OVC060 20/20 A2976 RMK AO2 RAB13 SLP074 P0004 60007 70012 T02000200 10200 20200 53008
KLAF 221054Z 35008KT 8SM OVC007 20/19 A2975 RMK AO2 RAE01B22E39 SLP069 P0003 T02000194
KLAF 221039Z 34008KT 7SM OVC007 20/19 A2975 RMK AO2 RAE01B22E39 P0003 T02000194
KLAF 221030Z AUTO 33008KT 2SM RA BR BKN007 OVC016 20/20 A2975 RMK AO2 RAE01B22 P0003 T02000200
KLAF 220954Z AUTO 33006KT 5SM -RA BR BKN007 OVC015 20/19 A2974 RMK AO2 RAB51 CIG 006V011 SLP066 P0000 T02000194
KLAF 220950Z AUTO 33005KT 6SM BR BKN009 OVC015 20/19 A2974 RMK AO2 CIG 006V011
KLAF 220939Z AUTO 33005KT 8SM SCT010 BKN014 OVC029 20/19 A2974 RMK AO2 T02000194
KLAF 220903Z AUTO 33006KT 7SM SCT008 OVC026 20/19 A2974 RMK AO2 T02000194
KLAF 220854Z AUTO 32007KT 7SM BKN008 OVC026 20/19 A2974 RMK AO2 CIG 006V011 SLP065 T02000194 55001
KLAF 220849Z AUTO 31006KT 7SM BKN007 OVC026 20/19 A2974 RMK AO2 CIG 006V011
KLAF 220838Z AUTO 32008KT 7SM SCT007 SCT012 OVC026 20/19 A2973 RMK AO2 T02000194
KLAF 220829Z AUTO 32005KT 8SM BKN007 BKN012 OVC026 20/19 A2973 RMK AO2 CIG 006V009 T02000194
KLAF 220754Z AUTO 32006KT 8SM FEW009 BKN014 OVC024 20/19 A2973 RMK AO2 SLP064 T02000194
KLAF 220728Z AUTO 31006KT 8SM SCT008 OVC015 20/19 A2974 RMK AO2 T02000194
KLAF 220654Z AUTO 33010KT 7SM BKN008 OVC015 20/19 A2974 RMK AO2 CIG 005V011 SLP066 T02000194
KLAF 220634Z AUTO 32009KT 7SM BKN007 OVC014 20/19 A2975 RMK AO2 CIG 006V011 T02000194
KLAF 220554Z AUTO 32009KT 8SM FEW007 BKN014 OVC026 20/19 A2975 RMK AO2 SLP070 T02000194 10233 20200 56007
KLAF 220545Z AUTO 33006KT 7SM FEW007 BKN019 OVC038 20/19 A2975 RMK AO2 T02000194
KLAF 220528Z AUTO 32007KT 10SM BKN016 OVC021 20/19 A2975 RMK AO2 T02000189
KLAF 220454Z AUTO 32007KT 10SM BKN014 BKN026 OVC034 20/19 A2976 RMK AO2 SLP072 T02000189 402610194
KLAF 220441Z AUTO 32007KT 10SM OVC014 20/19 A2976 RMK AO2 T02000189
KLAF 220354Z AUTO 31007KT 10SM OVC016 21/19 A2976 RMK AO2 SLP073 T02060189
KLAF 220316Z AUTO 32005KT 10SM BKN018 21/18 A2977 RMK AO2 T02060183
KLAF 220254Z AUTO 33006KT 10SM FEW080 21/18 A2977 RMK AO2 SLP077 T02060183 52007
KLAF 220154Z AUTO 35008KT 10SM OVC080 22/18 A2977 RMK AO2 SLP076 T02170183
KLAF 220054Z AUTO 33012G18KT 10SM BKN080 22/18 A2976 RMK AO2 SLP073 T02220183
KLAF 220001Z 35016G20KT 10SM FEW030 BKN050 BKN080 23/18 A2975 RMK AO2 T02330183
KLAF 212354Z 34012G24KT 10SM BKN024 BKN034 23/18 A2975 RMK AO2 SLP070 60000 T02330183 10256 20228 51012
KLAF 212254Z 34015G23KT 10SM BKN024 BKN029 BKN034 24/19 A2974 RMK AO2 PK WND 32026/2217 SLP067 T02390189
KLAF 212154Z 34016G23KT 10SM BKN024 BKN075 24/19 A2973 RMK AO2 PK WND 33030/2124 SLP064 T02440189
KLAF 212101Z 32015G23KT 10SM FEW022 SCT031 25/19 A2972 RMK AO2 T02500194
KLAF 212054Z 32014G21KT 10SM BKN019 BKN027 BKN075 25/20 A2972 RMK AO2 PK WND 33029/2038 SLP058 60000 T02500200 53006
KLAF 212013Z 32015G25KT 10SM BKN019 BKN027 BKN075 26/20 A2971 RMK AO2 T02560200
KLAF 212006Z 32014G24KT 10SM SCT019 SCT025 BKN075 26/20 A2971 RMK AO2 T02560200
KLAF 211954Z 31016G23KT 10SM BKN018 BKN030 OVC065 24/20 A2971 RMK AO2 RAB04E14 SLP057 P0000 T02440200